Wetterdaten: Freitag, 24.09.2010
Datum Zeit Temp. A. Feuchte A. Luftdruck Regen Wind Richtung Richtung Sonnenschein UV Solar Windben
24.09.2010 00:00 17,1 C 80 % 1004,3 hPa 0,0 mm 1,6 km/h (1 Bft) S-SO 157 0 min 0 UV-I 0 W/m 6,4 km/h (2 Bft)
24.09.2010 00:10 17,2 C 80 % 1004,4 hPa 0,0 mm 1,6 km/h (1 Bft) S-SO 157 0 min 0 UV-I 0 W/m 6,4 km/h (2 Bft)
24.09.2010 00:20 17,3 C 80 % 1004,4 hPa 0,0 mm 0,0 km/h (0 Bft) S 180 0 min 0 UV-I 0 W/m 4,8 km/h (1 Bft)
24.09.2010 00:30 17,4 C 79 % 1004,3 hPa 0,0 mm 1,6 km/h (1 Bft) W-SW 247 0 min 0 UV-I 0 W/m 14,5 km/h (3 Bft)
24.09.2010 00:40 17,7 C 78 % 1004,3 hPa 0,0 mm 1,6 km/h (1 Bft) S-SW 202 0 min 0 UV-I 0 W/m 9,7 km/h (2 Bft)
24.09.2010 00:50 18,0 C 78 % 1004,2 hPa 0,0 mm 1,6 km/h (1 Bft) SW 225 0 min 0 UV-I 0 W/m 11,3 km/h (2 Bft)
24.09.2010 01:00 18,1 C 77 % 1004,2 hPa 0,0 mm 1,6 km/h (1 Bft) SW 225 0 min 0 UV-I 0 W/m 11,3 km/h (2 Bft)
24.09.2010 01:10 18,2 C 77 % 1004,2 hPa 0,0 mm 3,2 km/h (1 Bft) SW 225 0 min 0 UV-I 0 W/m 14,5 km/h (3 Bft)
24.09.2010 01:20 18,2 C 79 % 1004,1 hPa 0,0 mm 0,0 km/h (0 Bft) S-SW 202 0 min 0 UV-I 0 W/m 3,2 km/h (1 Bft)
24.09.2010 01:30 17,9 C 81 % 1003,8 hPa 0,3 mm 0,0 km/h (0 Bft) S-SW 202 0 min 0 UV-I 0 W/m 4,8 km/h (1 Bft)
24.09.2010 01:40 17,4 C 84 % 1003,7 hPa 0,0 mm 0,0 km/h (0 Bft) S-SW 202 0 min 0 UV-I 0 W/m 1,6 km/h (1 Bft)
24.09.2010 01:50 17,0 C 86 % 1003,5 hPa 0,0 mm 0,0 km/h (0 Bft) N 0 0 min 0 UV-I 0 W/m 0,0 km/h (0 Bft)
24.09.2010 02:00 16,7 C 87 % 1003,4 hPa 0,0 mm 0,0 km/h (0 Bft) S-SW 202 0 min 0 UV-I 0 W/m 1,6 km/h (1 Bft)
24.09.2010 02:10 16,3 C 88 % 1003,3 hPa 0,0 mm 0,0 km/h (0 Bft) N 0 0 min 0 UV-I 0 W/m 0,0 km/h (0 Bft)
24.09.2010 02:20 15,8 C 88 % 1003,1 hPa 0,0 mm 0,0 km/h (0 Bft) N 0 0 min 0 UV-I 0 W/m 0,0 km/h (0 Bft)
24.09.2010 02:30 15,5 C 89 % 1003,1 hPa 0,0 mm 0,0 km/h (0 Bft) N 0 0 min 0 UV-I 0 W/m 0,0 km/h (0 Bft)
24.09.2010 02:40 15,4 C 90 % 1003,0 hPa 0,0 mm 0,0 km/h (0 Bft) N 0 0 min 0 UV-I 0 W/m 0,0 km/h (0 Bft)
24.09.2010 02:50 15,2 C 90 % 1003,0 hPa 0,0 mm 0,0 km/h (0 Bft) N 0 0 min 0 UV-I 0 W/m 0,0 km/h (0 Bft)
24.09.2010 03:00 15,1 C 90 % 1003,0 hPa 0,0 mm 0,0 km/h (0 Bft) S-SW 202 0 min 0 UV-I 0 W/m 1,6 km/h (1 Bft)
24.09.2010 03:10 15,1 C 91 % 1002,9 hPa 0,0 mm 0,0 km/h (0 Bft) N 0 0 min 0 UV-I 0 W/m 0,0 km/h (0 Bft)
24.09.2010 03:20 15,1 C 91 % 1002,6 hPa 0,0 mm 0,0 km/h (0 Bft) N 0 0 min 0 UV-I 0 W/m 0,0 km/h (0 Bft)
24.09.2010 03:30 15,1 C 91 % 1002,4 hPa 0,3 mm 0,0 km/h (0 Bft) N 0 0 min 0 UV-I 0 W/m 0,0 km/h (0 Bft)
24.09.2010 03:40 15,1 C 91 % 1002,5 hPa 0,0 mm 0,0 km/h (0 Bft) N 0 0 min 0 UV-I 0 W/m 0,0 km/h (0 Bft)
24.09.2010 03:50 15,1 C 92 % 1002,4 hPa 0,0 mm 0,0 km/h (0 Bft) S-SW 202 0 min 0 UV-I 0 W/m 1,6 km/h (1 Bft)
24.09.2010 04:00 15,1 C 92 % 1002,3 hPa 0,0 mm 0,0 km/h (0 Bft) N 0 0 min 0 UV-I 0 W/m 0,0 km/h (0 Bft)
24.09.2010 04:10 15,1 C 92 % 1002,2 hPa 0,0 mm 0,0 km/h (0 Bft) N 0 0 min 0 UV-I 0 W/m 0,0 km/h (0 Bft)
24.09.2010 04:20 15,1 C 92 % 1002,1 hPa 0,0 mm 0,0 km/h (0 Bft) N 0 0 min 0 UV-I 0 W/m 0,0 km/h (0 Bft)
24.09.2010 04:30 15,1 C 92 % 1002,0 hPa 0,0 mm 0,0 km/h (0 Bft) S-SW 202 0 min 0 UV-I 0 W/m 1,6 km/h (1 Bft)
24.09.2010 04:40 15,1 C 92 % 1001,9 hPa 0,0 mm 0,0 km/h (0 Bft) N 0 0 min 0 UV-I 0 W/m 0,0 km/h (0 Bft)
24.09.2010 04:50 15,0 C 92 % 1001,7 hPa 0,0 mm 0,0 km/h (0 Bft) N 0 0 min 0 UV-I 0 W/m 0,0 km/h (0 Bft)
24.09.2010 05:00 14,9 C 91 % 1001,7 hPa 0,0 mm 0,0 km/h (0 Bft) S-SW 202 0 min 0 UV-I 0 W/m 1,6 km/h (1 Bft)
24.09.2010 05:10 14,8 C 91 % 1001,6 hPa 0,0 mm 0,0 km/h (0 Bft) S-SW 202 0 min 0 UV-I 0 W/m 1,6 km/h (1 Bft)
24.09.2010 05:20 14,7 C 92 % 1001,3 hPa 0,0 mm 0,0 km/h (0 Bft) S-SW 202 0 min 0 UV-I 0 W/m 1,6 km/h (1 Bft)
24.09.2010 05:30 14,7 C 92 % 1001,5 hPa 0,0 mm 0,0 km/h (0 Bft) N 0 0 min 0 UV-I 0 W/m 0,0 km/h (0 Bft)
24.09.2010 05:40 14,4 C 91 % 1001,3 hPa 0,0 mm 0,0 km/h (0 Bft) N 0 0 min 0 UV-I 0 W/m 0,0 km/h (0 Bft)
24.09.2010 05:50 14,2 C 92 % 1001,4 hPa 0,0 mm 0,0 km/h (0 Bft) N 0 0 min 0 UV-I 0 W/m 0,0 km/h (0 Bft)
24.09.2010 06:00 14,1 C 91 % 1001,2 hPa 0,0 mm 0,0 km/h (0 Bft) N 0 0 min 0 UV-I 0 W/m 0,0 km/h (0 Bft)
24.09.2010 06:10 13,8 C 92 % 1001,5 hPa 0,0 mm 0,0 km/h (0 Bft) N 0 0 min 0 UV-I 0 W/m 0,0 km/h (0 Bft)
24.09.2010 06:20 13,9 C 92 % 1001,7 hPa 0,0 mm 0,0 km/h (0 Bft) N 0 0 min 0 UV-I 0 W/m 0,0 km/h (0 Bft)
24.09.2010 06:30 14,1 C 92 % 1001,7 hPa 0,0 mm 0,0 km/h (0 Bft) N 0 0 min 0 UV-I 0 W/m 0,0 km/h (0 Bft)
24.09.2010 06:40 14,3 C 93 % 1001,5 hPa 0,0 mm 0,0 km/h (0 Bft) N 0 0 min 0 UV-I 0 W/m 0,0 km/h (0 Bft)
24.09.2010 06:50 14,6 C 92 % 1001,4 hPa 0,0 mm 0,0 km/h (0 Bft) N 0 0 min 0 UV-I 0 W/m 0,0 km/h (0 Bft)
24.09.2010 07:00 14,7 C 92 % 1001,4 hPa 0,0 mm 0,0 km/h (0 Bft) N 0 0 min 0 UV-I 0 W/m 0,0 km/h (0 Bft)
24.09.2010 07:10 14,7 C 92 % 1001,7 hPa 0,0 mm 0,0 km/h (0 Bft) N 0 0 min 0 UV-I 0 W/m 0,0 km/h (0 Bft)
24.09.2010 07:20 14,7 C 92 % 1001,6 hPa 0,0 mm 0,0 km/h (0 Bft) N 0 0 min 0 UV-I 0 W/m 0,0 km/h (0 Bft)
24.09.2010 07:30 14,7 C 92 % 1001,6 hPa 0,0 mm 0,0 km/h (0 Bft) N 0 0 min 0 UV-I 0 W/m 0,0 km/h (0 Bft)
24.09.2010 07:40 14,7 C 92 % 1001,6 hPa 0,0 mm 0,0 km/h (0 Bft) S-SW 202 0 min 0 UV-I 9 W/m 1,6 km/h (1 Bft)
24.09.2010 07:50 14,7 C 92 % 1001,6 hPa 0,0 mm 0,0 km/h (0 Bft) N 0 0 min 0 UV-I 21 W/m 0,0 km/h (0 Bft)
24.09.2010 08:00 14,7 C 92 % 1001,5 hPa 0,0 mm 0,0 km/h (0 Bft) S-SW 213 0 min 0 UV-I 32 W/m 1,6 km/h (1 Bft)
24.09.2010 08:10 14,8 C 92 % 1001,4 hPa 0,0 mm 0,0 km/h (0 Bft) S-SW 202 0 min 0 UV-I 42 W/m 1,6 km/h (1 Bft)
24.09.2010 08:20 14,9 C 92 % 1001,4 hPa 0,0 mm 0,0 km/h (0 Bft) S-SW 202 0 min 0 UV-I 49 W/m 1,6 km/h (1 Bft)
24.09.2010 08:30 15,1 C 92 % 1001,3 hPa 0,0 mm 0,0 km/h (0 Bft) S-SW 202 0 min 0 UV-I 67 W/m 1,6 km/h (1 Bft)
24.09.2010 08:40 15,2 C 91 % 1001,1 hPa 0,0 mm 0,0 km/h (0 Bft) N 0 0 min 0 UV-I 69 W/m 0,0 km/h (0 Bft)
24.09.2010 08:50 15,4 C 91 % 1001,0 hPa 0,0 mm 0,0 km/h (0 Bft) S-SW 202 0 min 1 UV-I 81 W/m 1,6 km/h (1 Bft)
24.09.2010 09:00 15,7 C 91 % 1000,9 hPa 0,0 mm 0,0 km/h (0 Bft) S-SW 202 0 min 1 UV-I 81 W/m 1,6 km/h (1 Bft)
24.09.2010 09:10 15,8 C 90 % 1000,8 hPa 0,0 mm 0,0 km/h (0 Bft) S-SW 202 0 min 0 UV-I 77 W/m 1,6 km/h (1 Bft)
24.09.2010 09:20 15,9 C 90 % 1000,8 hPa 0,0 mm 0,0 km/h (0 Bft) S-SW 202 0 min 0 UV-I 51 W/m 1,6 km/h (1 Bft)
24.09.2010 09:30 15,9 C 90 % 1000,8 hPa 0,0 mm 0,0 km/h (0 Bft) N 0 0 min 0 UV-I 44 W/m 0,0 km/h (0 Bft)
24.09.2010 09:40 15,9 C 89 % 1000,8 hPa 0,0 mm 0,0 km/h (0 Bft) N 0 0 min 0 UV-I 23 W/m 0,0 km/h (0 Bft)
24.09.2010 09:50 15,9 C 89 % 1000,8 hPa 0,0 mm 0,0 km/h (0 Bft) N 0 0 min 0 UV-I 54 W/m 0,0 km/h (0 Bft)
24.09.2010 10:00 16,1 C 90 % 1000,8 hPa 0,0 mm 0,0 km/h (0 Bft) N 0 0 min 1 UV-I 77 W/m 0,0 km/h (0 Bft)
24.09.2010 10:10 16,2 C 90 % 1000,7 hPa 0,0 mm 0,0 km/h (0 Bft) S-SW 202 0 min 1 UV-I 121 W/m 3,2 km/h (1 Bft)
24.09.2010 10:20 16,4 C 89 % 1000,7 hPa 0,0 mm 0,0 km/h (0 Bft) S 180 0 min 1 UV-I 134 W/m 4,8 km/h (1 Bft)
24.09.2010 10:30 16,6 C 89 % 1000,7 hPa 0,0 mm 0,0 km/h (0 Bft) S 180 0 min 1 UV-I 98 W/m 3,2 km/h (1 Bft)
24.09.2010 10:40 16,6 C 88 % 1000,7 hPa 0,0 mm 1,6 km/h (1 Bft) S 180 0 min 1 UV-I 72 W/m 6,4 km/h (2 Bft)
24.09.2010 10:50 16,4 C 88 % 1000,7 hPa 0,0 mm 0,0 km/h (0 Bft) O-SO 112 0 min 0 UV-I 26 W/m 8,0 km/h (2 Bft)
24.09.2010 11:00 16,2 C 88 % 1000,7 hPa 0,0 mm 0,0 km/h (0 Bft) O-SO 112 0 min 0 UV-I 30 W/m 6,4 km/h (2 Bft)
24.09.2010 11:10 16,2 C 88 % 1000,6 hPa 0,0 mm 0,0 km/h (0 Bft) O-SO 112 0 min 0 UV-I 28 W/m 1,6 km/h (1 Bft)
24.09.2010 11:20 16,1 C 89 % 1000,6 hPa 0,0 mm 0,0 km/h (0 Bft) O-SO 112 0 min 0 UV-I 30 W/m 1,6 km/h (1 Bft)
24.09.2010 11:30 16,0 C 89 % 1000,6 hPa 0,0 mm 0,0 km/h (0 Bft) O-SO 112 0 min 0 UV-I 47 W/m 3,2 km/h (1 Bft)
24.09.2010 11:40 16,1 C 90 % 1000,5 hPa 0,0 mm 0,0 km/h (0 Bft) O-SO 112 0 min 1 UV-I 67 W/m 1,6 km/h (1 Bft)
24.09.2010 11:50 16,2 C 90 % 1000,5 hPa 0,0 mm 0,0 km/h (0 Bft) O-SO 112 0 min 1 UV-I 86 W/m 3,2 km/h (1 Bft)
24.09.2010 12:00 16,2 C 90 % 1000,3 hPa 0,0 mm 0,0 km/h (0 Bft) O-SO 112 0 min 1 UV-I 97 W/m 6,4 km/h (2 Bft)
24.09.2010 12:10 16,2 C 90 % 1000,3 hPa 0,0 mm 1,6 km/h (1 Bft) O-SO 112 0 min 1 UV-I 69 W/m 6,4 km/h (2 Bft)
24.09.2010 12:20 16,1 C 91 % 1000,3 hPa 0,0 mm 1,6 km/h (1 Bft) O-SO 112 0 min 0 UV-I 56 W/m 6,4 km/h (2 Bft)
24.09.2010 12:30 16,1 C 91 % 1000,1 hPa 0,3 mm 0,0 km/h (0 Bft) O-SO 112 0 min 1 UV-I 90 W/m 4,8 km/h (1 Bft)
24.09.2010 12:40 16,2 C 91 % 999,9 hPa 0,0 mm 0,0 km/h (0 Bft) O-SO 112 0 min 1 UV-I 90 W/m 4,8 km/h (1 Bft)
24.09.2010 12:50 16,2 C 91 % 1000,2 hPa 0,0 mm 1,6 km/h (1 Bft) O-SO 112 0 min 0 UV-I 53 W/m 11,3 km/h (2 Bft)
24.09.2010 13:00 15,7 C 90 % 1000,4 hPa 1,3 mm 3,2 km/h (1 Bft) W-SW 247 0 min 0 UV-I 40 W/m 11,3 km/h (2 Bft)
24.09.2010 13:10 15,1 C 91 % 1000,6 hPa 0,5 mm 3,2 km/h (1 Bft) W-NW 292 0 min 1 UV-I 72 W/m 11,3 km/h (2 Bft)
24.09.2010 13:20 14,9 C 91 % 1000,3 hPa 0,0 mm 4,8 km/h (1 Bft) W 270 0 min 2 UV-I 181 W/m 12,9 km/h (3 Bft)
24.09.2010 13:30 14,8 C 91 % 1000,4 hPa 0,0 mm 3,2 km/h (1 Bft) W 270 0 min 2 UV-I 176 W/m 11,3 km/h (2 Bft)
24.09.2010 13:40 14,9 C 92 % 1000,4 hPa 0,0 mm 1,6 km/h (1 Bft) W 270 0 min 2 UV-I 190 W/m 6,4 km/h (2 Bft)
24.09.2010 13:50 15,0 C 91 % 1000,2 hPa 0,0 mm 1,6 km/h (1 Bft) W-NW 292 0 min 1 UV-I 60 W/m 4,8 km/h (1 Bft)
24.09.2010 14:00 14,8 C 91 % 1000,2 hPa 0,0 mm 0,0 km/h (0 Bft) W-NW 292 0 min 0 UV-I 51 W/m 4,8 km/h (1 Bft)
24.09.2010 14:10 14,7 C 92 % 1000,3 hPa 0,0 mm 0,0 km/h (0 Bft) W-NW 292 0 min 1 UV-I 58 W/m 1,6 km/h (1 Bft)
24.09.2010 14:20 14,7 C 92 % 1000,4 hPa 0,0 mm 0,0 km/h (0 Bft) W-NW 292 0 min 0 UV-I 54 W/m 1,6 km/h (1 Bft)
24.09.2010 14:30 14,7 C 92 % 1000,3 hPa 0,0 mm 0,0 km/h (0 Bft) W 270 0 min 1 UV-I 149 W/m 3,2 km/h (1 Bft)
24.09.2010 14:40 14,9 C 92 % 1000,1 hPa 0,3 mm 0,0 km/h (0 Bft) W-NW 292 0 min 1 UV-I 153 W/m 3,2 km/h (1 Bft)
24.09.2010 14:50 15,0 C 92 % 1000,0 hPa 0,0 mm 0,0 km/h (0 Bft) W-NW 292 0 min 1 UV-I 104 W/m 1,6 km/h (1 Bft)
24.09.2010 15:00 14,9 C 92 % 1000,1 hPa 0,0 mm 0,0 km/h (0 Bft) W-NW 292 0 min 1 UV-I 109 W/m 4,8 km/h (1 Bft)
24.09.2010 15:10 14,8 C 92 % 1000,0 hPa 0,0 mm 0,0 km/h (0 Bft) W 270 0 min 1 UV-I 91 W/m 3,2 km/h (1 Bft)
24.09.2010 15:20 14,8 C 92 % 1000,1 hPa 0,3 mm 0,0 km/h (0 Bft) W 270 0 min 1 UV-I 93 W/m 3,2 km/h (1 Bft)
24.09.2010 15:30 14,7 C 92 % 1000,0 hPa 0,0 mm 0,0 km/h (0 Bft) W 270 0 min 1 UV-I 81 W/m 4,8 km/h (1 Bft)
24.09.2010 15:40 14,7 C 92 % 1000,0 hPa 0,0 mm 0,0 km/h (0 Bft) W 270 0 min 1 UV-I 100 W/m 4,8 km/h (1 Bft)
24.09.2010 15:50 14,8 C 92 % 1000,0 hPa 0,0 mm 0,0 km/h (0 Bft) W 270 0 min 1 UV-I 109 W/m 4,8 km/h (1 Bft)
24.09.2010 16:00 14,7 C 92 % 1000,0 hPa 0,0 mm 0,6 km/h (0 Bft) W-SW 246 0 min 1 UV-I 83 W/m 4,8 km/h (1 Bft)
24.09.2010 16:10 14,6 C 92 % 1000,0 hPa 0,0 mm 1,6 km/h (1 Bft) W-SW 247 0 min 1 UV-I 93 W/m 6,4 km/h (2 Bft)
24.09.2010 16:20 14,6 C 92 % 999,9 hPa 0,0 mm 0,0 km/h (0 Bft) W-SW 247 0 min 1 UV-I 65 W/m 4,8 km/h (1 Bft)
24.09.2010 16:30 14,6 C 92 % 999,8 hPa 0,0 mm 0,0 km/h (0 Bft) W-SW 247 0 min 1 UV-I 62 W/m 4,8 km/h (1 Bft)
24.09.2010 16:40 14,5 C 92 % 999,8 hPa 0,3 mm 0,0 km/h (0 Bft) W-SW 247 0 min 1 UV-I 63 W/m 4,8 km/h (1 Bft)
24.09.2010 16:50 14,5 C 92 % 999,6 hPa 0,0 mm 0,0 km/h (0 Bft) W-SW 247 0 min 1 UV-I 97 W/m 1,6 km/h (1 Bft)
24.09.2010 17:00 14,4 C 93 % 999,6 hPa 0,0 mm 0,0 km/h (0 Bft) N 0 0 min 1 UV-I 81 W/m 0,0 km/h (0 Bft)
24.09.2010 17:10 14,4 C 93 % 999,6 hPa 0,0 mm 0,0 km/h (0 Bft) N 0 0 min 0 UV-I 35 W/m 0,0 km/h (0 Bft)
24.09.2010 17:20 14,5 C 92 % 999,7 hPa 0,0 mm 0,0 km/h (0 Bft) W-SW 247 0 min 0 UV-I 37 W/m 3,2 km/h (1 Bft)
24.09.2010 17:30 14,3 C 92 % 999,6 hPa 0,0 mm 0,0 km/h (0 Bft) W-SW 247 0 min 0 UV-I 37 W/m 1,6 km/h (1 Bft)
24.09.2010 17:40 14,3 C 92 % 999,8 hPa 0,0 mm 0,0 km/h (0 Bft) W-SW 247 0 min 0 UV-I 28 W/m 1,6 km/h (1 Bft)
24.09.2010 17:50 14,4 C 93 % 999,7 hPa 0,0 mm 0,0 km/h (0 Bft) W-SW 247 0 min 0 UV-I 33 W/m 1,6 km/h (1 Bft)
24.09.2010 18:00 14,3 C 92 % 999,7 hPa 0,0 mm 0,0 km/h (0 Bft) W-SW 247 0 min 0 UV-I 33 W/m 1,6 km/h (1 Bft)
24.09.2010 18:10 14,3 C 92 % 999,7 hPa 0,0 mm 0,0 km/h (0 Bft) N 0 0 min 0 UV-I 28 W/m 0,0 km/h (0 Bft)
24.09.2010 18:20 14,3 C 92 % 999,7 hPa 0,3 mm 0,0 km/h (0 Bft) W-SW 247 0 min 0 UV-I 23 W/m 1,6 km/h (1 Bft)
24.09.2010 18:30 14,3 C 92 % 999,7 hPa 0,3 mm 0,0 km/h (0 Bft) W-SW 247 0 min 0 UV-I 21 W/m 1,6 km/h (1 Bft)
24.09.2010 18:40 14,2 C 92 % 999,7 hPa 0,3 mm 0,0 km/h (0 Bft) W-SW 247 0 min 0 UV-I 5 W/m 1,6 km/h (1 Bft)
24.09.2010 18:50 14,1 C 92 % 999,6 hPa 0,3 mm 0,0 km/h (0 Bft) W-SW 247 0 min 0 UV-I 5 W/m 1,6 km/h (1 Bft)
24.09.2010 19:00 14,1 C 92 % 999,8 hPa 0,3 mm 0,0 km/h (0 Bft) W-SW 247 0 min 0 UV-I 0 W/m 4,8 km/h (1 Bft)
24.09.2010 19:10 14,0 C 93 % 999,9 hPa 0,3 mm 0,0 km/h (0 Bft) W-SW 247 0 min 0 UV-I 0 W/m 3,2 km/h (1 Bft)
24.09.2010 19:20 13,9 C 92 % 1000,0 hPa 0,5 mm 0,0 km/h (0 Bft) W-SW 247 0 min 0 UV-I 0 W/m 3,2 km/h (1 Bft)
24.09.2010 19:30 13,8 C 93 % 1000,0 hPa 0,3 mm 0,0 km/h (0 Bft) W-SW 247 0 min 0 UV-I 0 W/m 4,8 km/h (1 Bft)
24.09.2010 19:40 13,7 C 93 % 1000,3 hPa 0,3 mm 0,0 km/h (0 Bft) W-SW 247 0 min 0 UV-I 0 W/m 4,8 km/h (1 Bft)
24.09.2010 19:50 13,7 C 93 % 1000,3 hPa 0,3 mm 0,0 km/h (0 Bft) W-SW 247 0 min 0 UV-I 0 W/m 4,8 km/h (1 Bft)
24.09.2010 20:00 13,7 C 93 % 1000,3 hPa 0,0 mm 0,0 km/h (0 Bft) W-SW 247 0 min 0 UV-I 0 W/m 1,6 km/h (1 Bft)
24.09.2010 20:10 13,7 C 93 % 1000,3 hPa 0,0 mm 0,0 km/h (0 Bft) W-SW 247 0 min 0 UV-I 0 W/m 3,2 km/h (1 Bft)
24.09.2010 20:20 13,6 C 93 % 1000,4 hPa 0,0 mm 0,0 km/h (0 Bft) W-SW 247 0 min 0 UV-I 0 W/m 3,2 km/h (1 Bft)
24.09.2010 20:30 13,6 C 93 % 1000,5 hPa 0,3 mm 0,0 km/h (0 Bft) W-SW 247 0 min 0 UV-I 0 W/m 3,2 km/h (1 Bft)
24.09.2010 20:40 13,5 C 93 % 1000,4 hPa 0,0 mm 1,6 km/h (1 Bft) W-SW 247 0 min 0 UV-I 0 W/m 8,0 km/h (2 Bft)
24.09.2010 20:50 13,3 C 93 % 1000,4 hPa 0,0 mm 3,2 km/h (1 Bft) W-SW 247 0 min 0 UV-I 0 W/m 11,3 km/h (2 Bft)
24.09.2010 21:00 13,1 C 93 % 1000,4 hPa 0,0 mm 1,6 km/h (1 Bft) W-SW 247 0 min 0 UV-I 0 W/m 9,7 km/h (2 Bft)
24.09.2010 21:10 12,9 C 93 % 1000,5 hPa 0,3 mm 1,6 km/h (1 Bft) W-SW 247 0 min 0 UV-I 0 W/m 6,4 km/h (2 Bft)
24.09.2010 21:20 12,9 C 93 % 1000,7 hPa 0,0 mm 1,6 km/h (1 Bft) W-SW 247 0 min 0 UV-I 0 W/m 6,4 km/h (2 Bft)
24.09.2010 21:30 12,8 C 93 % 1000,7 hPa 0,0 mm 1,6 km/h (1 Bft) W-SW 247 0 min 0 UV-I 0 W/m 6,4 km/h (2 Bft)
24.09.2010 21:40 12,8 C 93 % 1000,7 hPa 0,0 mm 0,0 km/h (0 Bft) W-SW 247 0 min 0 UV-I 0 W/m 4,8 km/h (1 Bft)
24.09.2010 21:50 12,8 C 93 % 1000,6 hPa 0,0 mm 0,0 km/h (0 Bft) W-SW 247 0 min 0 UV-I 0 W/m 4,8 km/h (1 Bft)
24.09.2010 22:00 12,7 C 93 % 1000,6 hPa 0,0 mm 0,0 km/h (0 Bft) W-SW 247 0 min 0 UV-I 0 W/m 3,2 km/h (1 Bft)
24.09.2010 22:10 12,7 C 93 % 1000,6 hPa 0,0 mm 0,0 km/h (0 Bft) W-SW 247 0 min 0 UV-I 0 W/m 1,6 km/h (1 Bft)
24.09.2010 22:20 12,7 C 93 % 1000,8 hPa 0,0 mm 0,0 km/h (0 Bft) N 0 0 min 0 UV-I 0 W/m 0,0 km/h (0 Bft)
24.09.2010 22:30 12,8 C 93 % 1000,8 hPa 0,0 mm 0,0 km/h (0 Bft) N 0 0 min 0 UV-I 0 W/m 0,0 km/h (0 Bft)
24.09.2010 22:40 12,8 C 93 % 1000,9 hPa 0,0 mm 0,0 km/h (0 Bft) N 0 0 min 0 UV-I 0 W/m 0,0 km/h (0 Bft)
24.09.2010 22:50 12,9 C 93 % 1000,9 hPa 0,0 mm 0,0 km/h (0 Bft) N 0 0 min 0 UV-I 0 W/m 0,0 km/h (0 Bft)
24.09.2010 23:00 12,9 C 93 % 1001,0 hPa 0,0 mm 0,0 km/h (0 Bft) N 0 0 min 0 UV-I 0 W/m 0,0 km/h (0 Bft)
24.09.2010 23:10 12,9 C 93 % 1001,0 hPa 0,0 mm 0,0 km/h (0 Bft) W-SW 247 0 min 0 UV-I 0 W/m 1,6 km/h (1 Bft)
24.09.2010 23:20 12,8 C 93 % 1001,1 hPa 0,0 mm 0,0 km/h (0 Bft) N 0 0 min 0 UV-I 0 W/m 0,0 km/h (0 Bft)
24.09.2010 23:30 12,8 C 93 % 1001,2 hPa 0,0 mm 0,0 km/h (0 Bft) W-SW 247 0 min 0 UV-I 0 W/m 1,6 km/h (1 Bft)
24.09.2010 23:40 12,8 C 94 % 1001,2 hPa 0,0 mm 0,0 km/h (0 Bft) N 0 0 min 0 UV-I 0 W/m 0,0 km/h (0 Bft)
24.09.2010 23:50 12,9 C 94 % 1001,2 hPa 0,0 mm 0,0 km/h (0 Bft) W-SW 247 0 min 0 UV-I 0 W/m 4,8 km/h (1 Bft)
_ Min-Zeit 21:50 01:00 16:50 - 00:20 - - - - - 01:50
Minimum _ 12,7 C 77 % 999,6 hPa - 0,0 km/h (0 Bft) - - - - - 0,0 km/h (0 Bft)
_ Max-Zeit 01:10 23:40 00:10 13:00 13:20 - - 00:00 13:20 13:40 00:30
Maximum _ 18,3 C 94 % 1004,4 hPa 1,3 mm 4,8 km/h
W (1 Bft)
- - 0 min 2 UV-I 190 W/m 14,5 km/h
W-SW (3 Bft)
Durchschnitt _ 14,9 C 91 % 1001,1 hPa #6,6 mm 0,3 km/h (0 Bft) W-SW - #0 min. 1 UV-I 69 W/m 3,1 km/h (1 Bft)